Time;durP1;ratioP1;P1;durP2;ratioP2;P2;SDS_P1;SDS_P2;PMS_P1;PMS_P2;Temp;Humidity;BMP_temperature;BMP_pressure;BME280_temperature;BME280_humidity;BME280_pressure;Samples;Min_cycle;Max_cycle;Signal;HPM_P1;HPM_P2
2022/04/25 00:01:48;;;;;;;18.53;12.80;;;;;;;;;;5065012;28;20179;-83
2022/04/25 00:04:52;;;;;;;16.87;12.10;;;;;;;;;;5076181;28;20204;-83
2022/04/25 00:07:56;;;;;;;16.17;12.40;;;;;;;;;;5064703;28;20219;-83
2022/04/25 00:11:01;;;;;;;18.63;13.40;;;;;;;;;;5077284;28;20184;-83
2022/04/25 00:14:06;;;;;;;17.57;12.97;;;;;;;;;;5053475;28;20179;-84
2022/04/25 00:17:11;;;;;;;18.17;13.80;;;;;;;;;;5052398;28;20626;-83
2022/04/25 00:20:15;;;;;;;21.53;15.07;;;;;;;;;;5064893;28;20583;-84
2022/04/25 00:23:19;;;;;;;18.97;14.37;;;;;;;;;;5076875;28;20179;-83
2022/04/25 00:26:23;;;;;;;19.93;13.93;;;;;;;;;;5053447;28;20184;-84
2022/04/25 00:29:27;;;;;;;19.33;13.20;;;;;;;;;;5052995;28;20215;-83
2022/04/25 00:32:31;;;;;;;17.17;13.67;;;;;;;;;;5064097;28;20203;-84
2022/04/25 00:35:36;;;;;;;17.37;12.73;;;;;;;;;;5076252;28;20175;-83
2022/04/25 00:38:40;;;;;;;21.00;13.63;;;;;;;;;;5064374;28;20211;-83
2022/04/25 00:41:44;;;;;;;19.50;13.67;;;;;;;;;;5075535;28;20520;-84
2022/04/25 00:44:48;;;;;;;18.23;13.63;;;;;;;;;;5052608;28;20219;-83
2022/04/25 00:47:52;;;;;;;19.03;14.77;;;;;;;;;;5052746;28;20219;-84
2022/04/25 00:50:57;;;;;;;21.00;16.07;;;;;;;;;;5053024;28;20179;-84
2022/04/25 00:54:01;;;;;;;24.30;17.40;;;;;;;;;;5064295;28;20175;-83
2022/04/25 00:57:05;;;;;;;23.73;16.83;;;;;;;;;;5052565;28;20175;-83
2022/04/25 01:00:11;;;;;;;25.60;15.60;;;;;;;;;;5063944;28;20179;-83
2022/04/25 01:03:15;;;;;;;20.67;16.17;;;;;;;;;;5052833;28;20184;-83
2022/04/25 01:06:19;;;;;;;18.87;14.10;;;;;;;;;;5063979;28;20180;-83
2022/04/25 01:09:25;;;;;;;21.27;14.93;;;;;;;;;;5075339;28;20211;-84
2022/04/25 01:12:29;;;;;;;18.27;12.07;;;;;;;;;;5052586;28;20172;-83
2022/04/25 01:15:34;;;;;;;14.10;10.10;;;;;;;;;;5063613;28;20529;-83
2022/04/25 01:18:38;;;;;;;12.27;9.13;;;;;;;;;;5063439;28;20678;-83
2022/04/25 01:21:57;;;;;;;10.83;8.63;;;;;;;;;;5075154;28;20179;-84
2022/04/25 01:28:24;;;;;;;12.03;8.73;;;;;;;;;;5063529;28;20215;-84
2022/04/25 01:31:28;;;;;;;10.90;7.93;;;;;;;;;;5074620;28;20207;-84
2022/04/25 01:34:36;;;;;;;10.07;7.47;;;;;;;;;;5063491;28;20183;-83
2022/04/25 01:37:40;;;;;;;9.93;7.17;;;;;;;;;;5052253;28;20176;-84
2022/04/25 01:40:45;;;;;;;9.27;6.33;;;;;;;;;;5063089;28;20203;-83
2022/04/25 01:43:49;;;;;;;8.17;6.73;;;;;;;;;;5063266;28;20549;-84
2022/04/25 01:46:53;;;;;;;8.13;6.13;;;;;;;;;;5063158;28;20183;-83
2022/04/25 01:49:57;;;;;;;5.97;5.23;;;;;;;;;;5074572;28;20175;-84
2022/04/25 01:53:01;;;;;;;6.83;5.10;;;;;;;;;;5051746;28;20184;-84
2022/04/25 01:56:05;;;;;;;6.93;5.60;;;;;;;;;;5063644;28;20187;-84
2022/04/25 01:59:10;;;;;;;5.83;4.80;;;;;;;;;;5074563;28;20215;-84
2022/04/25 02:02:14;;;;;;;6.77;5.20;;;;;;;;;;5051636;28;20187;-84
2022/04/25 02:05:18;;;;;;;11.20;4.73;;;;;;;;;;5062593;28;20658;-83
2022/04/25 02:08:22;;;;;;;4.93;4.43;;;;;;;;;;5051487;28;20218;-84
2022/04/25 02:11:27;;;;;;;6.80;5.30;;;;;;;;;;5051281;28;20179;-84
2022/04/25 02:14:31;;;;;;;5.70;5.07;;;;;;;;;;5051631;28;20175;-84
2022/04/25 02:17:35;;;;;;;4.80;4.30;;;;;;;;;;5073826;28;20208;-83
2022/04/25 02:20:39;;;;;;;5.53;5.03;;;;;;;;;;5074169;28;20538;-83
2022/04/25 02:23:44;;;;;;;6.07;5.00;;;;;;;;;;5061990;28;20175;-83
2022/04/25 02:26:50;;;;;;;6.77;5.23;;;;;;;;;;5050707;28;20176;-83
2022/04/25 02:29:58;;;;;;;7.57;5.67;;;;;;;;;;5061990;28;20172;-84
2022/04/25 02:33:02;;;;;;;8.17;5.30;;;;;;;;;;5062026;28;20199;-84
2022/04/25 02:36:06;;;;;;;7.07;5.57;;;;;;;;;;5062374;28;20175;-84
2022/04/25 02:39:10;;;;;;;5.67;5.07;;;;;;;;;;5049629;28;20211;-84
2022/04/25 02:42:14;;;;;;;5.30;4.77;;;;;;;;;;5050782;28;20179;-83
2022/04/25 02:45:19;;;;;;;5.57;4.97;;;;;;;;;;5050885;28;20670;-84
2022/04/25 02:48:23;;;;;;;5.83;4.83;;;;;;;;;;5050882;28;20682;-83
2022/04/25 02:51:27;;;;;;;5.17;4.53;;;;;;;;;;5062156;28;20187;-83
2022/04/25 02:54:32;;;;;;;6.77;5.07;;;;;;;;;;5062083;28;20180;-84
2022/04/25 02:57:36;;;;;;;6.90;5.60;;;;;;;;;;5073592;28;20748;-84
2022/04/25 03:00:41;;;;;;;7.10;5.60;;;;;;;;;;5062351;28;20622;-84
2022/04/25 03:03:45;;;;;;;7.73;5.33;;;;;;;;;;5051021;28;20187;-86
2022/04/25 03:06:49;;;;;;;7.73;6.03;;;;;;;;;;5050471;28;20179;-86
2022/04/25 03:09:53;;;;;;;6.73;6.00;;;;;;;;;;5050249;28;20195;-86
2022/04/25 03:12:57;;;;;;;7.30;5.50;;;;;;;;;;5061991;28;20183;-85
2022/04/25 03:16:04;;;;;;;7.33;6.00;;;;;;;;;;5052630;28;20179;-84
2022/04/25 03:19:09;;;;;;;7.00;5.80;;;;;;;;;;5055196;28;20697;-84
2022/04/25 03:22:13;;;;;;;8.67;6.27;;;;;;;;;;5066768;28;20188;-84
2022/04/25 03:25:17;;;;;;;8.90;6.73;;;;;;;;;;5065889;28;20223;-84
2022/04/25 03:28:21;;;;;;;8.40;6.60;;;;;;;;;;5077716;28;20223;-84
2022/04/25 03:31:25;;;;;;;9.53;6.60;;;;;;;;;;5062425;28;20210;-84
2022/04/25 03:34:30;;;;;;;9.97;7.00;;;;;;;;;;5061506;28;20515;-84
2022/04/25 03:37:36;;;;;;;9.07;7.40;;;;;;;;;;5049562;28;20195;-83
2022/04/25 03:40:41;;;;;;;9.17;7.63;;;;;;;;;;5073093;28;20179;-84
2022/04/25 03:43:46;;;;;;;10.00;7.60;;;;;;;;;;5050261;28;20184;-84
2022/04/25 03:46:50;;;;;;;10.43;7.33;;;;;;;;;;5050419;28;20515;-84
2022/04/25 03:49:55;;;;;;;10.70;8.63;;;;;;;;;;5061625;28;20175;-84
2022/04/25 03:53:07;;;;;;;10.67;8.83;;;;;;;;;;5052441;28;20179;-83
2022/04/25 03:59:35;;;;;;;11.03;9.03;;;;;;;;;;5077718;28;20215;-84
2022/04/25 04:02:39;;;;;;;12.13;9.30;;;;;;;;;;5054814;28;20191;-85
2022/04/25 04:05:44;;;;;;;11.53;9.13;;;;;;;;;;5065305;28;20203;-85
2022/04/25 04:08:48;;;;;;;12.23;9.67;;;;;;;;;;5064942;28;20211;-85
2022/04/25 04:11:52;;;;;;;14.10;9.87;;;;;;;;;;5053801;28;20626;-86
2022/04/25 04:14:58;;;;;;;14.07;10.07;;;;;;;;;;5053846;28;20191;-87
2022/04/25 04:18:06;;;;;;;13.37;10.50;;;;;;;;;;5053793;28;20211;-84
2022/04/25 04:21:11;;;;;;;13.30;10.20;;;;;;;;;;5053469;28;20191;-86
2022/04/25 04:24:15;;;;;;;14.03;10.33;;;;;;;;;;5076547;28;20541;-85
2022/04/25 04:27:19;;;;;;;16.27;11.27;;;;;;;;;;5064215;28;20175;-85
2022/04/25 04:30:24;;;;;;;12.80;10.17;;;;;;;;;;5064241;28;20195;-85
2022/04/25 04:33:28;;;;;;;13.87;11.07;;;;;;;;;;5065122;28;20171;-86
2022/04/25 04:36:32;;;;;;;15.97;11.80;;;;;;;;;;5065451;28;20171;-86
2022/04/25 04:39:36;;;;;;;17.10;12.80;;;;;;;;;;5065687;28;20223;-84
2022/04/25 04:42:41;;;;;;;16.60;11.83;;;;;;;;;;5064883;28;20221;-86
2022/04/25 04:45:46;;;;;;;16.83;11.97;;;;;;;;;;5075373;28;20200;-89
2022/04/25 04:48:51;;;;;;;15.80;11.87;;;;;;;;;;5041470;28;20220;-86
2022/04/25 04:51:54;;;;;;;16.53;12.10;;;;;;;;;;5046536;28;20191;-85
2022/04/25 04:54:59;;;;;;;14.93;11.53;;;;;;;;;;5043880;28;20522;-86
2022/04/25 04:58:03;;;;;;;16.93;12.10;;;;;;;;;;5032616;28;20207;-86
2022/04/25 05:01:12;;;;;;;17.57;12.67;;;;;;;;;;5052479;28;20221;-86
2022/04/25 05:04:16;;;;;;;18.50;12.53;;;;;;;;;;5033497;28;20184;-86
2022/04/25 05:07:20;;;;;;;17.63;12.73;;;;;;;;;;5075342;28;20193;-86
2022/04/25 05:10:25;;;;;;;18.77;13.50;;;;;;;;;;5052193;28;20183;-86
2022/04/25 05:13:31;;;;;;;17.93;13.40;;;;;;;;;;5063787;28;20179;-86
2022/04/25 05:16:35;;;;;;;17.33;13.53;;;;;;;;;;5052349;28;20179;-86
2022/04/25 05:19:39;;;;;;;17.33;12.93;;;;;;;;;;5063345;28;20215;-86
2022/04/25 05:22:46;;;;;;;20.37;14.60;;;;;;;;;;5063632;28;20179;-86
2022/04/25 05:25:50;;;;;;;22.03;15.00;;;;;;;;;;5052176;28;20219;-84
2022/04/25 05:28:54;;;;;;;21.03;15.57;;;;;;;;;;5063649;28;20228;-84
2022/04/25 05:31:58;;;;;;;23.17;16.43;;;;;;;;;;5051869;28;20207;-84
2022/04/25 05:35:05;;;;;;;20.97;15.20;;;;;;;;;;5077902;28;20171;-84
2022/04/25 05:38:11;;;;;;;21.67;15.90;;;;;;;;;;5067527;28;20214;-84
2022/04/25 05:41:15;;;;;;;23.00;16.57;;;;;;;;;;5056227;28;20184;-84
2022/04/25 05:44:19;;;;;;;24.57;16.70;;;;;;;;;;5078943;28;20183;-84
2022/04/25 05:47:23;;;;;;;23.40;17.43;;;;;;;;;;5055763;28;20179;-84
2022/04/25 05:53:50;;;;;;;23.90;17.37;;;;;;;;;;5067610;28;20188;-84
2022/04/25 05:56:55;;;;;;;21.93;16.33;;;;;;;;;;5067545;28;20191;-84
2022/04/25 05:59:59;;;;;;;22.67;16.60;;;;;;;;;;5067022;28;20175;-84
2022/04/25 06:03:03;;;;;;;23.57;17.13;;;;;;;;;;5079876;28;20179;-84
2022/04/25 06:06:07;;;;;;;21.40;17.00;;;;;;;;;;5055638;28;20211;-84
2022/04/25 06:09:11;;;;;;;20.47;16.53;;;;;;;;;;5055801;28;20211;-85
2022/04/25 06:12:15;;;;;;;20.47;16.53;;;;;;;;;;5055380;28;20175;-84
2022/04/25 06:15:24;;;;;;;21.73;16.27;;;;;;;;;;5055147;28;20175;-85
2022/04/25 06:18:28;;;;;;;20.00;16.33;;;;;;;;;;5055733;28;20223;-85
2022/04/25 06:21:33;;;;;;;20.87;16.77;;;;;;;;;;5066979;28;20187;-84
2022/04/25 06:24:38;;;;;;;20.83;16.87;;;;;;;;;;5077672;28;20194;-84
2022/04/25 06:27:42;;;;;;;22.03;17.60;;;;;;;;;;5066275;28;20195;-85
2022/04/25 06:30:47;;;;;;;21.43;17.50;;;;;;;;;;5077559;28;20208;-84
2022/04/25 06:33:51;;;;;;;19.63;16.40;;;;;;;;;;5066045;28;20167;-84
2022/04/25 06:36:56;;;;;;;18.57;16.27;;;;;;;;;;5077220;28;20195;-84
2022/04/25 06:40:00;;;;;;;20.93;16.60;;;;;;;;;;5055153;28;20187;-84
2022/04/25 06:43:04;;;;;;;19.07;16.10;;;;;;;;;;5065627;28;20206;-85
2022/04/25 06:46:09;;;;;;;19.17;16.13;;;;;;;;;;5066425;28;20234;-84
2022/04/25 06:49:25;;;;;;;18.63;15.43;;;;;;;;;;5054045;28;20218;-85
2022/04/25 06:52:29;;;;;;;20.90;17.57;;;;;;;;;;5078067;28;20191;-84
2022/04/25 06:55:34;;;;;;;18.97;15.90;;;;;;;;;;5065445;28;20202;-84
2022/04/25 06:58:38;;;;;;;19.73;16.93;;;;;;;;;;5077953;28;20227;-85
2022/04/25 07:01:42;;;;;;;22.67;18.37;;;;;;;;;;5066550;28;20191;-84
2022/04/25 07:04:47;;;;;;;19.87;16.97;;;;;;;;;;5054802;28;20538;-84
2022/04/25 07:07:51;;;;;;;22.63;17.40;;;;;;;;;;5066373;28;20217;-85
2022/04/25 07:10:56;;;;;;;19.27;16.80;;;;;;;;;;5055131;28;20191;-84
2022/04/25 07:14:02;;;;;;;22.13;17.93;;;;;;;;;;5054839;28;20654;-84
2022/04/25 07:17:06;;;;;;;24.87;18.90;;;;;;;;;;5078159;28;20183;-84
2022/04/25 07:20:10;;;;;;;23.10;18.67;;;;;;;;;;5065747;28;20183;-84
2022/04/25 07:30:03;;;;;;;27.23;20.30;;;;;;;;;;5081531;28;20179;-84
2022/04/25 07:33:08;;;;;;;18.30;16.07;;;;;;;;;;5081182;28;20203;-84
2022/04/25 07:36:14;;;;;;;17.00;15.17;;;;;;;;;;5058479;28;20179;-84
2022/04/25 07:39:19;;;;;;;17.10;14.37;;;;;;;;;;5070466;28;20700;-84
2022/04/25 07:42:23;;;;;;;14.00;11.10;;;;;;;;;;5057117;28;20665;-86
2022/04/25 07:45:27;;;;;;;12.43;10.37;;;;;;;;;;5064446;28;20206;-87
2022/04/25 07:48:34;;;;;;;11.17;9.77;;;;;;;;;;5064183;28;20226;-86
2022/04/25 07:51:42;;;;;;;8.93;7.97;;;;;;;;;;5064435;28;20650;-86
2022/04/25 07:54:46;;;;;;;9.03;8.13;;;;;;;;;;5053180;28;20631;-86
2022/04/25 07:57:51;;;;;;;9.23;8.23;;;;;;;;;;5064250;28;20207;-87
2022/04/25 08:00:56;;;;;;;9.50;7.60;;;;;;;;;;5064066;28;20179;-87
2022/04/25 08:04:01;;;;;;;8.60;7.47;;;;;;;;;;5052680;28;20176;-87
2022/04/25 08:07:05;;;;;;;7.17;6.47;;;;;;;;;;5064405;28;20662;-87
2022/04/25 08:10:09;;;;;;;7.20;6.47;;;;;;;;;;5052928;28;20199;-87
2022/04/25 08:19:58;;;;;;;6.23;5.63;;;;;;;;;;5063750;28;20188;-86
2022/04/25 08:23:05;;;;;;;5.93;5.33;;;;;;;;;;5064166;28;20175;-87
2022/04/25 08:26:09;;;;;;;5.50;5.00;;;;;;;;;;5043052;28;20208;-87
2022/04/25 08:29:13;;;;;;;6.13;5.57;;;;;;;;;;5049026;28;20223;-86
2022/04/25 08:32:17;;;;;;;5.83;5.23;;;;;;;;;;5056591;28;20552;-86
2022/04/25 08:35:22;;;;;;;5.43;4.93;;;;;;;;;;5086843;28;20516;-87
2022/04/25 08:38:26;;;;;;;4.43;4.03;;;;;;;;;;5062630;28;20215;-86
2022/04/25 08:41:34;;;;;;;6.50;4.87;;;;;;;;;;5057354;28;20183;-87
2022/04/25 08:44:40;;;;;;;5.37;4.87;;;;;;;;;;5051398;28;20200;-86
2022/04/25 08:47:54;;;;;;;5.30;4.67;;;;;;;;;;5062394;28;20555;-86
2022/04/25 08:50:58;;;;;;;4.77;4.27;;;;;;;;;;5057819;28;20632;-87
2022/04/25 08:54:08;;;;;;;5.33;4.83;;;;;;;;;;5046940;28;20191;-87
2022/04/25 08:57:14;;;;;;;4.60;4.20;;;;;;;;;;5064943;28;20187;-87
2022/04/25 09:00:18;;;;;;;4.60;4.20;;;;;;;;;;5042774;28;20647;-87
2022/04/25 09:03:22;;;;;;;4.70;4.20;;;;;;;;;;5054577;28;20180;-87
2022/04/25 09:06:27;;;;;;;4.20;3.80;;;;;;;;;;5055189;28;20212;-87
2022/04/25 09:09:32;;;;;;;4.50;4.10;;;;;;;;;;5074378;28;20215;-87
2022/04/25 09:12:37;;;;;;;4.70;3.73;;;;;;;;;;5062333;28;20191;-87
2022/04/25 09:15:41;;;;;;;5.33;4.30;;;;;;;;;;5062193;28;20542;-87
2022/04/25 09:18:46;;;;;;;5.23;4.73;;;;;;;;;;5065100;28;20563;-87
2022/04/25 09:21:50;;;;;;;5.50;4.67;;;;;;;;;;5050617;28;20657;-87
2022/04/25 09:24:54;;;;;;;5.30;4.80;;;;;;;;;;5051533;28;20199;-87
2022/04/25 09:28:14;;;;;;;5.20;4.40;;;;;;;;;;5037436;28;20231;-86
2022/04/25 09:31:21;;;;;;;6.03;4.80;;;;;;;;;;5055750;23;20739;-85
2022/04/25 09:37:51;;;;;;;6.43;4.83;;;;;;;;;;5030863;28;20178;-85
2022/04/25 09:40:55;;;;;;;5.13;4.63;;;;;;;;;;4996458;28;20221;-84
2022/04/25 09:43:59;;;;;;;5.53;4.47;;;;;;;;;;4983565;28;20190;-85
2022/04/25 09:47:03;;;;;;;6.20;4.50;;;;;;;;;;4996428;28;20209;-84
2022/04/25 09:50:07;;;;;;;7.03;4.27;;;;;;;;;;4989687;28;20225;-84
2022/04/25 09:53:11;;;;;;;6.43;3.93;;;;;;;;;;4991372;28;20174;-84
2022/04/25 09:56:30;;;;;;;4.90;3.83;;;;;;;;;;5002105;28;20189;-84
2022/04/25 09:59:44;;;;;;;4.83;4.00;;;;;;;;;;5002141;28;20217;-84
2022/04/25 10:02:51;;;;;;;4.67;3.97;;;;;;;;;;4991880;28;20189;-84
2022/04/25 10:05:55;;;;;;;4.33;3.93;;;;;;;;;;5002222;28;20189;-84
2022/04/25 10:09:02;;;;;;;5.90;4.10;;;;;;;;;;4991028;28;20181;-84
2022/04/25 10:12:06;;;;;;;3.87;3.50;;;;;;;;;;4971495;28;20190;-84
2022/04/25 10:15:10;;;;;;;4.40;3.70;;;;;;;;;;5005472;28;20197;-84
2022/04/25 10:18:15;;;;;;;3.47;3.00;;;;;;;;;;5001633;28;20181;-84
2022/04/25 10:21:20;;;;;;;3.63;3.10;;;;;;;;;;4990554;28;20221;-84
2022/04/25 10:24:24;;;;;;;4.20;3.37;;;;;;;;;;5001882;28;20517;-84
2022/04/25 10:27:32;;;;;;;4.63;3.07;;;;;;;;;;4988355;28;20677;-84
2022/04/25 10:30:38;;;;;;;4.30;3.90;;;;;;;;;;4993341;28;20241;-84
2022/04/25 10:33:51;;;;;;;3.77;2.90;;;;;;;;;;5012532;28;20197;-84
2022/04/25 10:36:55;;;;;;;6.57;3.40;;;;;;;;;;4989923;28;20190;-84
2022/04/25 10:40:05;;;;;;;3.20;2.90;;;;;;;;;;4991150;28;20209;-84
2022/04/25 10:47:03;;;;;;;3.60;3.07;;;;;;;;;;5001525;28;20213;-84
2022/04/25 10:50:08;;;;;;;3.47;3.17;;;;;;;;;;5012080;28;20233;-85
2022/04/25 10:53:12;;;;;;;3.37;3.07;;;;;;;;;;4981450;28;20190;-85
2022/04/25 10:56:16;;;;;;;3.70;3.30;;;;;;;;;;4988361;28;20197;-85
2022/04/25 10:59:22;;;;;;;3.87;3.47;;;;;;;;;;5001067;28;20201;-84
2022/04/25 11:02:28;;;;;;;3.77;3.40;;;;;;;;;;4995311;28;20181;-84
2022/04/25 11:05:33;;;;;;;4.07;3.30;;;;;;;;;;4995365;28;20197;-84
2022/04/25 11:08:39;;;;;;;4.03;3.63;;;;;;;;;;4995980;28;20213;-85
2022/04/25 11:11:48;;;;;;;4.07;3.67;;;;;;;;;;5018850;28;20628;-84
2022/04/25 11:14:57;;;;;;;4.00;3.37;;;;;;;;;;4995664;28;20182;-85
2022/04/25 11:18:22;;;;;;;3.43;3.13;;;;;;;;;;4996041;28;20177;-85
2022/04/25 11:21:32;;;;;;;3.50;3.20;;;;;;;;;;5016504;28;20221;-85
2022/04/25 11:24:42;;;;;;;3.30;3.00;;;;;;;;;;4994455;28;20201;-85
2022/04/25 11:28:01;;;;;;;6.13;4.67;;;;;;;;;;5005460;28;20691;-84
2022/04/25 11:31:20;;;;;;;4.53;4.13;;;;;;;;;;5028458;28;20224;-84
2022/04/25 11:34:27;;;;;;;5.13;3.43;;;;;;;;;;5006406;28;20186;-84
2022/04/25 11:37:33;;;;;;;4.87;3.90;;;;;;;;;;4989993;28;20194;-84
2022/04/25 11:40:39;;;;;;;3.43;3.13;;;;;;;;;;5017657;28;20217;-85
2022/04/25 11:43:45;;;;;;;3.90;3.57;;;;;;;;;;4990034;28;20194;-84
2022/04/25 11:46:50;;;;;;;5.00;4.10;;;;;;;;;;5008297;28;20190;-85
2022/04/25 11:49:56;;;;;;;3.90;3.40;;;;;;;;;;4996356;28;20218;-85
2022/04/25 11:53:00;;;;;;;5.23;3.37;;;;;;;;;;5027602;28;20185;-84
2022/04/25 11:56:16;;;;;;;5.27;4.00;;;;;;;;;;5013155;28;20205;-83
2022/04/25 11:59:20;;;;;;;5.00;3.83;;;;;;;;;;5017004;28;20177;-82
2022/04/25 12:02:34;;;;;;;4.73;3.40;;;;;;;;;;5005503;28;20529;-83
2022/04/25 12:05:40;;;;;;;4.83;4.33;;;;;;;;;;4995018;28;20193;-84
2022/04/25 12:15:37;;;;;;;3.97;3.60;;;;;;;;;;5005360;28;20185;-84
2022/04/25 12:18:50;;;;;;;4.30;3.90;;;;;;;;;;5017423;28;20170;-83
2022/04/25 12:22:03;;;;;;;4.17;3.77;;;;;;;;;;4994323;28;20193;-84
2022/04/25 12:25:15;;;;;;;4.40;4.00;;;;;;;;;;5006376;28;20645;-84
2022/04/25 12:28:24;;;;;;;5.10;4.60;;;;;;;;;;5007240;28;20213;-84
2022/04/25 12:31:36;;;;;;;4.27;3.80;;;;;;;;;;4994503;28;20229;-83
2022/04/25 12:34:40;;;;;;;4.40;3.60;;;;;;;;;;5010549;28;20197;-84
2022/04/25 12:37:44;;;;;;;4.40;3.67;;;;;;;;;;5019777;28;20177;-83
2022/04/25 12:40:56;;;;;;;4.27;3.87;;;;;;;;;;4994820;28;20557;-83
2022/04/25 12:44:11;;;;;;;3.27;2.90;;;;;;;;;;5006670;28;20177;-83
2022/04/25 12:47:16;;;;;;;3.33;2.87;;;;;;;;;;4994111;28;20225;-84
2022/04/25 12:50:43;;;;;;;3.23;2.93;;;;;;;;;;4995364;28;20209;-84
2022/04/25 12:53:47;;;;;;;3.50;3.20;;;;;;;;;;5015896;28;20186;-84
2022/04/25 12:56:55;;;;;;;3.37;2.97;;;;;;;;;;4984257;28;20186;-84
2022/04/25 13:00:00;;;;;;;3.20;2.90;;;;;;;;;;4984631;28;20217;-84
2022/04/25 13:03:04;;;;;;;2.97;2.77;;;;;;;;;;4998715;28;20193;-84
2022/04/25 13:06:10;;;;;;;3.20;2.83;;;;;;;;;;5003310;28;20205;-84
2022/04/25 13:09:15;;;;;;;3.30;2.60;;;;;;;;;;5001437;28;20676;-84
2022/04/25 13:12:19;;;;;;;3.83;3.20;;;;;;;;;;4991359;28;20201;-85
2022/04/25 13:15:31;;;;;;;3.57;3.17;;;;;;;;;;5003969;28;20181;-86
2022/04/25 13:18:35;;;;;;;4.87;3.13;;;;;;;;;;5004380;28;20185;-83
2022/04/25 13:21:42;;;;;;;4.70;3.33;;;;;;;;;;5004331;28;20178;-83
2022/04/25 13:24:46;;;;;;;3.90;3.50;;;;;;;;;;5015575;28;20178;-83
2022/04/25 13:27:52;;;;;;;4.87;3.57;;;;;;;;;;5003466;28;20212;-83
2022/04/25 13:30:56;;;;;;;3.43;2.90;;;;;;;;;;5003232;28;20225;-83
2022/04/25 13:34:00;;;;;;;3.83;3.47;;;;;;;;;;5014461;28;20186;-83
2022/04/25 13:37:06;;;;;;;4.70;4.10;;;;;;;;;;5014592;28;20181;-83
2022/04/25 13:40:11;;;;;;;4.23;3.83;;;;;;;;;;5004151;28;20217;-84
2022/04/25 13:43:16;;;;;;;3.70;3.40;;;;;;;;;;5004308;28;20513;-84
2022/04/25 13:46:20;;;;;;;3.73;3.43;;;;;;;;;;4993666;28;20186;-84
2022/04/25 13:49:24;;;;;;;4.30;2.87;;;;;;;;;;5003919;28;20221;-84
2022/04/25 13:52:29;;;;;;;4.00;3.60;;;;;;;;;;5003448;28;20201;-84
2022/04/25 13:55:33;;;;;;;4.70;3.47;;;;;;;;;;4992597;28;20189;-84
2022/04/25 13:58:38;;;;;;;4.70;3.10;;;;;;;;;;4985740;28;20625;-85
2022/04/25 14:01:42;;;;;;;4.00;3.57;;;;;;;;;;4998750;28;20554;-85
2022/04/25 14:04:46;;;;;;;6.13;3.80;;;;;;;;;;4984691;28;20194;-85
2022/04/25 14:07:51;;;;;;;3.67;3.10;;;;;;;;;;4978076;28;20213;-84
2022/04/25 14:10:55;;;;;;;6.83;3.50;;;;;;;;;;5004055;28;20209;-85
2022/04/25 14:14:00;;;;;;;4.87;3.00;;;;;;;;;;4992896;28;20173;-85
2022/04/25 14:17:05;;;;;;;3.90;3.50;;;;;;;;;;4993722;28;20676;-84
2022/04/25 14:20:10;;;;;;;4.17;3.37;;;;;;;;;;5016578;28;20573;-84
2022/04/25 14:23:14;;;;;;;4.00;3.30;;;;;;;;;;5015924;28;20173;-84
2022/04/25 14:26:19;;;;;;;3.47;3.17;;;;;;;;;;5004083;28;20189;-84
2022/04/25 14:29:23;;;;;;;2.93;2.73;;;;;;;;;;4993601;28;20209;-84
2022/04/25 14:32:28;;;;;;;5.67;3.10;;;;;;;;;;5014993;28;20197;-84
2022/04/25 14:35:32;;;;;;;3.27;2.80;;;;;;;;;;5003081;28;20186;-84
2022/04/25 14:38:37;;;;;;;3.37;3.07;;;;;;;;;;5003562;28;20173;-84
2022/04/25 14:41:41;;;;;;;9.80;3.10;;;;;;;;;;5003832;28;20178;-84
2022/04/25 14:44:45;;;;;;;3.27;2.97;;;;;;;;;;5025839;28;20197;-84
2022/04/25 14:47:50;;;;;;;3.40;3.10;;;;;;;;;;4992456;28;20213;-84
2022/04/25 14:54:24;;;;;;;3.50;3.20;;;;;;;;;;5004172;28;20514;-85
2022/04/25 14:57:29;;;;;;;4.77;4.23;;;;;;;;;;5006548;28;20197;-84
2022/04/25 15:00:33;;;;;;;3.80;3.43;;;;;;;;;;5019051;28;20213;-84
2022/04/25 15:03:37;;;;;;;5.87;3.43;;;;;;;;;;5017089;28;20201;-84
2022/04/25 15:06:42;;;;;;;5.23;3.77;;;;;;;;;;4992819;28;20197;-83
2022/04/25 15:09:46;;;;;;;5.10;3.63;;;;;;;;;;5001973;28;20572;-84
2022/04/25 15:12:50;;;;;;;4.03;3.63;;;;;;;;;;5023935;28;20193;-84
2022/04/25 15:15:54;;;;;;;3.37;3.07;;;;;;;;;;4991137;28;20648;-83
2022/04/25 15:19:00;;;;;;;3.63;3.27;;;;;;;;;;5014177;28;20182;-83
2022/04/25 15:22:04;;;;;;;8.77;4.20;;;;;;;;;;5013830;28;20173;-84
2022/04/25 15:25:08;;;;;;;5.00;3.33;;;;;;;;;;5002147;28;20177;-84
2022/04/25 15:28:12;;;;;;;3.30;3.00;;;;;;;;;;4991126;28;20205;-84
2022/04/25 15:31:16;;;;;;;3.77;3.47;;;;;;;;;;5052435;22;20228;-88
2022/04/25 15:34:20;;;;;;;3.63;3.27;;;;;;;;;;5052616;28;20192;-87
2022/04/25 15:37:30;;;;;;;4.00;3.60;;;;;;;;;;5021530;28;20196;-87
2022/04/25 15:40:36;;;;;;;6.70;3.10;;;;;;;;;;5051784;28;20216;-86
2022/04/25 15:43:41;;;;;;;3.13;2.90;;;;;;;;;;5040193;28;20184;-86
2022/04/25 15:46:45;;;;;;;4.00;3.00;;;;;;;;;;5042315;28;20638;-84
2022/04/25 15:49:49;;;;;;;3.20;2.90;;;;;;;;;;5053012;28;20215;-86
2022/04/25 15:52:53;;;;;;;4.87;3.20;;;;;;;;;;5044000;28;20192;-86
2022/04/25 15:59:20;;;;;;;3.20;2.90;;;;;;;;;;5058454;28;20193;-87
2022/04/25 16:02:24;;;;;;;4.60;3.43;;;;;;;;;;5055308;28;20543;-84
2022/04/25 16:05:29;;;;;;;4.13;2.70;;;;;;;;;;5026532;28;20176;-86
2022/04/25 16:08:32;;;;;;;5.37;2.73;;;;;;;;;;5056670;28;20216;-85
2022/04/25 16:11:37;;;;;;;3.00;2.70;;;;;;;;;;5040369;28;20250;-84
2022/04/25 16:14:42;;;;;;;3.43;2.80;;;;;;;;;;5057259;28;20176;-82
2022/04/25 16:17:47;;;;;;;4.03;3.40;;;;;;;;;;5044560;28;20195;-86
2022/04/25 16:20:52;;;;;;;3.40;3.03;;;;;;;;;;5044185;28;20223;-85
2022/04/25 16:23:58;;;;;;;4.10;3.70;;;;;;;;;;5045013;28;20188;-83
2022/04/25 16:27:04;;;;;;;4.43;4.03;;;;;;;;;;5055782;28;20192;-84
2022/04/25 16:30:09;;;;;;;3.10;2.80;;;;;;;;;;5043938;28;20223;-86
2022/04/25 16:33:14;;;;;;;3.00;2.70;;;;;;;;;;5055571;28;20635;-82
2022/04/25 16:36:18;;;;;;;3.20;2.33;;;;;;;;;;5044167;28;20184;-85
2022/04/25 16:39:29;;;;;;;5.73;2.87;;;;;;;;;;5044829;28;20176;-83
2022/04/25 16:42:34;;;;;;;2.83;2.53;;;;;;;;;;5043914;28;20203;-84
2022/04/25 16:45:38;;;;;;;3.07;2.47;;;;;;;;;;5046289;28;20192;-83
2022/04/25 16:48:43;;;;;;;5.43;3.80;;;;;;;;;;5056345;28;20228;-85
2022/04/25 16:51:47;;;;;;;4.80;4.30;;;;;;;;;;5042392;28;20220;-83
2022/04/25 16:54:51;;;;;;;4.60;4.20;;;;;;;;;;5044892;28;20184;-86
2022/04/25 16:57:55;;;;;;;10.37;4.90;;;;;;;;;;5032251;28;20188;-82
2022/04/25 17:00:59;;;;;;;4.90;4.40;;;;;;;;;;5042540;28;20219;-85
2022/04/25 17:04:04;;;;;;;4.93;4.43;;;;;;;;;;5035738;28;20635;-85
2022/04/25 17:07:08;;;;;;;5.47;4.90;;;;;;;;;;5037129;28;20185;-82
2022/04/25 17:10:13;;;;;;;5.43;4.93;;;;;;;;;;5031066;28;20224;-86
2022/04/25 17:13:18;;;;;;;7.07;5.37;;;;;;;;;;5038682;28;20201;-83
2022/04/25 17:16:23;;;;;;;9.03;5.77;;;;;;;;;;5036607;28;20200;-87
2022/04/25 17:19:27;;;;;;;6.23;5.63;;;;;;;;;;5043245;28;20192;-83
2022/04/25 17:22:31;;;;;;;6.23;5.63;;;;;;;;;;5043105;28;20176;-85
2022/04/25 17:25:37;;;;;;;6.20;5.60;;;;;;;;;;5025821;28;20512;-83
2022/04/25 17:28:42;;;;;;;5.87;5.27;;;;;;;;;;5036057;28;20208;-83
2022/04/25 17:35:23;;;;;;;5.90;5.30;;;;;;;;;;5045039;28;20189;-83
